Time;durP1;ratioP1;P1;durP2;ratioP2;P2;SDS_P1;SDS_P2;PMS_P1;PMS_P2;Temp;Humidity;BMP_temperature;BMP_pressure;BME280_temperature;BME280_humidity;BME280_pressure;Samples;Min_cycle;Max_cycle;Signal;HPM_P1;HPM_P2
2022/06/18 00:00:12;;;;;;;8.50;6.15;;;27.40;99.90;;;;;;4185704;28;20045;-63
2022/06/18 00:02:20;;;;;;;7.03;5.65;;;27.50;99.90;;;;;;4174169;28;20063;-64
2022/06/18 00:04:26;;;;;;;7.65;6.10;;;27.40;99.90;;;;;;4173211;28;20556;-64
2022/06/18 00:06:34;;;;;;;7.70;6.18;;;27.50;99.90;;;;;;4155328;28;20083;-64
2022/06/18 00:08:38;;;;;;;11.25;6.45;;;27.50;99.90;;;;;;4177792;28;20365;-64
2022/06/18 00:10:43;;;;;;;6.72;5.38;;;27.50;99.90;;;;;;4174634;28;20581;-64
2022/06/18 00:15:14;;;;;;;8.15;5.53;;;27.60;99.90;;;;;;4172157;28;20379;-65
2022/06/18 00:17:18;;;;;;;12.40;6.57;;;27.60;99.90;;;;;;4176732;28;20047;-65
2022/06/18 00:19:26;;;;;;;15.20;8.10;;;27.60;99.90;;;;;;4176156;28;20076;-64
2022/06/18 00:21:42;;;;;;;11.15;8.73;;;27.70;99.90;;;;;;4173963;28;20414;-65
2022/06/18 00:23:46;;;;;;;14.50;6.50;;;27.70;99.90;;;;;;4176716;28;20079;-67
2022/06/18 00:25:53;;;;;;;9.07;6.32;;;27.70;99.90;;;;;;4174222;28;20044;-65
2022/06/18 00:27:59;;;;;;;8.90;6.55;;;27.70;99.90;;;;;;4174724;28;20077;-65
2022/06/18 00:30:06;;;;;;;7.57;5.90;;;27.80;99.90;;;;;;4174572;28;20053;-66
2022/06/18 00:32:11;;;;;;;7.70;5.93;;;27.70;99.90;;;;;;4173294;28;20069;-65
2022/06/18 00:34:15;;;;;;;8.77;5.97;;;27.80;99.90;;;;;;4177982;28;20048;-65
2022/06/18 00:36:21;;;;;;;9.45;5.63;;;27.80;99.90;;;;;;4177089;28;20060;-65
2022/06/18 00:38:28;;;;;;;7.07;5.40;;;27.90;99.90;;;;;;4177918;28;20549;-66
2022/06/18 00:40:38;;;;;;;8.98;5.57;;;27.90;99.90;;;;;;4177943;28;20048;-65
2022/06/18 00:42:43;;;;;;;9.77;5.70;;;27.90;99.90;;;;;;4194993;28;20040;-66
2022/06/18 00:44:53;;;;;;;10.55;5.38;;;27.90;99.90;;;;;;4177921;28;20040;-66
2022/06/18 00:47:27;;;;;;;7.72;5.40;;;27.90;99.90;;;;;;4176557;28;20053;-66
2022/06/18 00:49:57;;;;;;;6.72;5.10;;;28.00;99.90;;;;;;4176719;28;20059;-65
2022/06/18 00:52:24;;;;;;;7.70;5.43;;;28.00;99.90;;;;;;4174165;28;20049;-65
2022/06/18 00:54:49;;;;;;;6.38;4.57;;;28.10;99.90;;;;;;4192599;28;20044;-66
2022/06/18 00:57:03;;;;;;;7.13;4.75;;;28.20;99.90;;;;;;4175896;28;20115;-66
2022/06/18 00:59:45;;;;;;;8.30;4.75;;;28.20;99.90;;;;;;4178410;28;20125;-66
2022/06/18 01:02:18;;;;;;;6.32;4.25;;;28.30;99.90;;;;;;4177288;28;20041;-65
2022/06/18 01:04:30;;;;;;;7.00;4.43;;;28.30;99.90;;;;;;4177815;28;20633;-65
2022/06/18 01:06:37;;;;;;;8.88;4.22;;;28.40;99.90;;;;;;4176047;28;20037;-65
2022/06/18 01:08:41;;;;;;;6.32;4.35;;;28.50;99.90;;;;;;4159525;28;20049;-65
2022/06/18 01:10:56;;;;;;;4.47;3.80;;;28.50;99.90;;;;;;4193323;28;20048;-65
2022/06/18 01:13:02;;;;;;;6.63;4.40;;;28.60;99.90;;;;;;4176726;28;20045;-66
2022/06/18 01:15:20;;;;;;;6.35;4.18;;;28.60;99.90;;;;;;4163024;28;20077;-65
2022/06/18 01:17:47;;;;;;;5.13;3.53;;;28.60;99.90;;;;;;4146451;28;20443;-66
2022/06/18 01:19:56;;;;;;;9.85;3.83;;;28.70;99.90;;;;;;4178079;28;20055;-65
2022/06/18 01:22:38;;;;;;;6.75;4.07;;;28.70;99.90;;;;;;4176692;28;20053;-65
2022/06/18 01:24:46;;;;;;;5.65;4.28;;;28.80;99.90;;;;;;4176845;28;20167;-65
2022/06/18 01:26:53;;;;;;;5.78;3.85;;;28.80;99.90;;;;;;4177903;28;20045;-65
2022/06/18 01:29:06;;;;;;;5.38;3.58;;;28.80;99.90;;;;;;4175504;28;20056;-65
2022/06/18 01:31:26;;;;;;;4.80;3.17;;;28.80;99.90;;;;;;4178863;28;20454;-66
2022/06/18 01:33:32;;;;;;;5.65;3.03;;;28.90;99.90;;;;;;4175297;28;20544;-65
2022/06/18 01:35:39;;;;;;;6.45;2.67;;;28.90;99.90;;;;;;4178141;28;20053;-65
2022/06/18 01:37:53;;;;;;;4.85;2.47;;;28.90;99.90;;;;;;4175890;28;20045;-64
2022/06/18 01:40:04;;;;;;;3.28;2.50;;;29.00;99.90;;;;;;4177004;28;20068;-64
2022/06/18 01:42:40;;;;;;;7.15;2.72;;;29.00;99.90;;;;;;4178237;28;20045;-65
2022/06/18 01:44:55;;;;;;;6.10;2.38;;;29.10;99.90;;;;;;4170852;28;20045;-65
2022/06/18 01:47:25;;;;;;;3.40;2.40;;;29.10;99.90;;;;;;4178760;28;20754;-65
2022/06/18 01:49:35;;;;;;;5.22;2.60;;;29.00;99.90;;;;;;4178524;28;20537;-65
2022/06/18 01:51:47;;;;;;;7.50;2.28;;;29.00;99.90;;;;;;4179198;28;20455;-65
2022/06/18 01:54:05;;;;;;;3.88;2.10;;;29.10;99.90;;;;;;4178120;28;20619;-65
2022/06/18 01:56:18;;;;;;;4.82;2.42;;;29.10;99.90;;;;;;4175306;28;20045;-65
2022/06/18 01:58:39;;;;;;;6.10;2.40;;;29.10;99.90;;;;;;4194197;28;20040;-65
2022/06/18 02:00:54;;;;;;;6.53;2.70;;;29.10;99.90;;;;;;4171206;28;20049;-64
2022/06/18 02:02:59;;;;;;;3.20;2.50;;;29.10;99.90;;;;;;4178308;28;20037;-64
2022/06/18 02:05:09;;;;;;;6.50;2.90;;;29.20;99.90;;;;;;4177754;28;20053;-65
2022/06/18 02:07:15;;;;;;;4.35;2.67;;;29.20;99.90;;;;;;4178928;28;20132;-65
2022/06/18 02:09:58;;;;;;;6.82;3.60;;;29.10;99.90;;;;;;4178362;28;20041;-65
2022/06/18 02:12:13;;;;;;;4.10;2.70;;;29.10;99.90;;;;;;4178966;28;20056;-64
2022/06/18 02:14:18;;;;;;;4.10;2.90;;;29.20;99.90;;;;;;4161062;28;20037;-65
2022/06/18 02:16:25;;;;;;;4.68;2.70;;;29.30;99.90;;;;;;4172000;28;20140;-64
2022/06/18 02:18:33;;;;;;;7.25;2.97;;;29.30;99.90;;;;;;4179005;28;20064;-64
2022/06/18 02:20:55;;;;;;;5.03;2.63;;;29.40;99.90;;;;;;4176548;28;20408;-64
2022/06/18 02:23:01;;;;;;;5.95;2.83;;;29.50;99.90;;;;;;4177443;28;20075;-65
2022/06/18 02:25:28;;;;;;;4.65;2.60;;;29.40;99.90;;;;;;4178961;28;20140;-65
2022/06/18 02:27:41;;;;;;;6.50;2.40;;;29.30;99.90;;;;;;4175765;28;20091;-65
2022/06/18 02:29:47;;;;;;;6.93;2.83;;;29.30;99.90;;;;;;4177431;28;20041;-64
2022/06/18 02:31:57;;;;;;;6.93;2.67;;;29.30;99.90;;;;;;4176647;28;20057;-64
2022/06/18 02:34:05;;;;;;;4.50;2.97;;;29.40;99.90;;;;;;4178527;28;20049;-64
2022/06/18 02:36:34;;;;;;;5.57;2.80;;;29.40;99.90;;;;;;4176415;28;20041;-65
2022/06/18 02:38:44;;;;;;;5.30;3.05;;;29.50;99.90;;;;;;4178928;28;20134;-65
2022/06/18 02:40:53;;;;;;;5.03;2.65;;;29.50;99.90;;;;;;4176694;28;20045;-65
2022/06/18 02:43:00;;;;;;;3.85;2.53;;;29.70;99.90;;;;;;4176420;28;20131;-64
2022/06/18 02:45:09;;;;;;;2.90;2.47;;;29.70;99.90;;;;;;4176941;28;20045;-65
2022/06/18 02:47:16;;;;;;;5.35;2.65;;;29.70;99.90;;;;;;4175216;28;20478;-65
2022/06/18 02:49:36;;;;;;;8.13;2.70;;;29.70;99.90;;;;;;4177806;28;20037;-65
2022/06/18 02:51:47;;;;;;;7.63;3.00;;;29.80;99.90;;;;;;4144628;28;20054;-65
2022/06/18 02:53:57;;;;;;;5.57;3.17;;;30.10;99.90;;;;;;4172169;28;20048;-65
2022/06/18 02:56:04;;;;;;;6.20;3.03;;;30.10;99.90;;;;;;4190851;28;20110;-65
2022/06/18 02:58:17;;;;;;;4.30;3.10;;;30.10;99.90;;;;;;4177111;28;20049;-65
2022/06/18 03:00:22;;;;;;;6.32;3.03;;;30.20;99.90;;;;;;4174383;28;20057;-64
2022/06/18 03:02:28;;;;;;;8.52;3.45;;;30.20;99.90;;;;;;4178633;28;20045;-65
2022/06/18 03:04:33;;;;;;;7.90;3.83;;;30.30;99.90;;;;;;4177581;28;20098;-64
2022/06/18 03:06:38;;;;;;;7.30;3.83;;;30.40;99.90;;;;;;4175867;28;20037;-64
2022/06/18 03:08:46;;;;;;;8.07;3.30;;;30.40;99.90;;;;;;4177607;28;20069;-64
2022/06/18 03:13:25;;;;;;;7.55;2.70;;;30.50;99.90;;;;;;4177246;28;20059;-64
2022/06/18 03:15:30;;;;;;;4.70;2.80;;;30.50;99.90;;;;;;4176242;28;20083;-64
2022/06/18 03:17:41;;;;;;;4.63;2.80;;;30.50;99.90;;;;;;4176963;28;20511;-64
2022/06/18 03:19:52;;;;;;;6.15;3.40;;;30.70;99.90;;;;;;4177148;28;20446;-64
2022/06/18 03:22:16;;;;;;;6.90;3.30;;;30.80;99.90;;;;;;4175663;28;20091;-64
2022/06/18 03:24:25;;;;;;;10.00;3.47;;;30.80;99.90;;;;;;4176691;28;20048;-64
2022/06/18 03:26:37;;;;;;;5.32;3.17;;;31.00;99.90;;;;;;4158717;28;20037;-64
2022/06/18 03:28:58;;;;;;;6.32;3.03;;;31.20;99.90;;;;;;4176026;28;20055;-65
2022/06/18 03:31:06;;;;;;;5.72;2.78;;;31.20;99.90;;;;;;4175604;28;20055;-65
2022/06/18 03:33:16;;;;;;;5.32;2.58;;;31.10;99.90;;;;;;4160227;28;20057;-65
2022/06/18 03:35:21;;;;;;;4.53;2.50;;;31.20;99.90;;;;;;4176568;28;20567;-65
2022/06/18 03:37:29;;;;;;;4.45;2.30;;;31.30;99.00;;;;;;4175020;28;20052;-64
2022/06/18 03:39:33;;;;;;;5.22;2.63;;;31.30;98.30;;;;;;4177525;28;20083;-64
2022/06/18 03:41:38;;;;;;;6.05;2.60;;;31.50;98.30;;;;;;4176236;28;20522;-65
2022/06/18 03:43:47;;;;;;;5.65;1.80;;;31.40;97.70;;;;;;4141739;28;20065;-64
2022/06/18 03:46:01;;;;;;;6.18;2.10;;;31.30;97.00;;;;;;4176140;28;20037;-64
2022/06/18 03:48:07;;;;;;;5.45;2.50;;;31.40;97.40;;;;;;4174287;28;20049;-65
2022/06/18 03:50:18;;;;;;;4.05;2.08;;;31.50;97.50;;;;;;4176633;28;20087;-64
2022/06/18 03:52:23;;;;;;;4.22;2.20;;;31.60;97.60;;;;;;4174721;28;20580;-66
2022/06/18 03:54:28;;;;;;;3.67;1.90;;;31.80;97.40;;;;;;4176517;28;20045;-63
2022/06/18 03:56:37;;;;;;;3.40;2.10;;;31.90;96.80;;;;;;4175731;28;20131;-63
2022/06/18 03:58:41;;;;;;;3.63;2.13;;;31.90;96.70;;;;;;4174050;28;20055;-64
2022/06/18 04:00:48;;;;;;;5.90;2.40;;;32.00;96.70;;;;;;4176427;28;20049;-64
2022/06/18 04:03:00;;;;;;;2.65;1.90;;;32.00;96.20;;;;;;4176547;28;20140;-64
2022/06/18 04:05:13;;;;;;;4.15;1.80;;;32.10;97.00;;;;;;4177734;28;20064;-64
2022/06/18 04:07:20;;;;;;;4.53;2.17;;;32.10;96.10;;;;;;4178187;28;20049;-63
2022/06/18 04:09:50;;;;;;;2.65;1.48;;;32.20;95.90;;;;;;4178915;28;20517;-63
2022/06/18 04:11:59;;;;;;;3.72;1.40;;;32.10;95.60;;;;;;4179558;28;20148;-64
2022/06/18 04:14:19;;;;;;;2.53;1.40;;;32.30;95.50;;;;;;4186922;28;20098;-64
2022/06/18 04:16:57;;;;;;;3.33;1.60;;;32.30;95.50;;;;;;4180568;28;20441;-64
2022/06/18 04:19:11;;;;;;;6.20;1.80;;;32.40;95.00;;;;;;4170444;28;20571;-65
2022/06/18 04:21:16;;;;;;;2.20;1.35;;;32.30;94.80;;;;;;4174727;28;20053;-64
2022/06/18 04:23:23;;;;;;;1.92;1.25;;;32.40;94.70;;;;;;4180835;28;20049;-64
2022/06/18 04:25:28;;;;;;;1.85;1.30;;;32.40;94.90;;;;;;4176364;28;20134;-64
2022/06/18 04:27:33;;;;;;;3.20;1.15;;;32.50;95.10;;;;;;4179475;28;20519;-65
2022/06/18 04:29:42;;;;;;;2.95;1.30;;;32.50;94.20;;;;;;4172817;28;20067;-65
2022/06/18 04:31:48;;;;;;;3.67;1.30;;;32.50;94.50;;;;;;4179107;28;20053;-64
2022/06/18 04:33:53;;;;;;;2.80;1.38;;;32.70;94.70;;;;;;4179063;28;20144;-65
2022/06/18 04:36:06;;;;;;;2.03;1.40;;;32.70;95.10;;;;;;4161695;28;20583;-65
2022/06/18 04:38:11;;;;;;;2.47;1.38;;;32.70;94.70;;;;;;4195783;28;20052;-64
2022/06/18 04:40:33;;;;;;;2.40;1.73;;;32.80;95.40;;;;;;4169367;28;20060;-64
2022/06/18 04:43:13;;;;;;;5.35;1.60;;;32.60;94.80;;;;;;4157630;28;20055;-64
2022/06/18 04:45:23;;;;;;;2.75;1.45;;;32.70;95.00;;;;;;4135276;28;20056;-63
2022/06/18 04:47:35;;;;;;;3.83;1.40;;;32.80;94.60;;;;;;4161621;28;20046;-63
2022/06/18 04:49:43;;;;;;;3.72;1.98;;;32.80;95.20;;;;;;4161344;28;20045;-63
2022/06/18 04:51:51;;;;;;;4.85;1.60;;;32.90;94.60;;;;;;4143946;28;20140;-64
2022/06/18 04:54:11;;;;;;;2.45;1.65;;;32.90;94.40;;;;;;4144432;28;20080;-65
2022/06/18 04:56:21;;;;;;;4.90;1.58;;;33.00;94.70;;;;;;4111091;28;20086;-64
2022/06/18 04:58:25;;;;;;;2.95;1.70;;;33.00;95.00;;;;;;4145728;28;20057;-63
2022/06/18 05:00:33;;;;;;;1.75;1.25;;;33.10;94.70;;;;;;4143978;28;20136;-63
2022/06/18 05:03:00;;;;;;;3.20;1.30;;;33.00;93.60;;;;;;4148337;28;20195;-63
2022/06/18 05:05:27;;;;;;;2.75;1.25;;;33.10;93.70;;;;;;4157039;28;20037;-63
2022/06/18 05:07:49;;;;;;;3.47;1.52;;;33.10;93.40;;;;;;4160252;28;20033;-63
2022/06/18 05:10:18;;;;;;;3.08;1.38;;;33.10;93.70;;;;;;4144942;28;20056;-63
2022/06/18 05:12:30;;;;;;;2.88;1.13;;;33.40;93.40;;;;;;4159482;28;20044;-64
2022/06/18 05:14:47;;;;;;;2.97;1.10;;;33.50;93.20;;;;;;4174665;28;20071;-64
2022/06/18 05:16:54;;;;;;;2.58;1.00;;;33.40;93.10;;;;;;4175671;28;20048;-63
2022/06/18 05:18:59;;;;;;;1.10;0.77;;;33.50;92.40;;;;;;4179144;28;20072;-64
2022/06/18 05:21:16;;;;;;;2.75;0.95;;;33.60;92.50;;;;;;4170601;28;20099;-64
2022/06/18 05:23:25;;;;;;;1.75;0.85;;;33.60;91.70;;;;;;4176823;28;20087;-64
2022/06/18 05:25:30;;;;;;;1.92;0.88;;;33.50;92.20;;;;;;4177516;28;20080;-63
2022/06/18 05:27:36;;;;;;;1.50;0.80;;;33.40;92.40;;;;;;4176647;28;20045;-64
2022/06/18 05:29:59;;;;;;;2.13;0.90;;;33.40;92.10;;;;;;4148161;28;20046;-64
2022/06/18 05:32:14;;;;;;;3.03;0.80;;;33.50;92.00;;;;;;4176817;28;20049;-64
2022/06/18 05:34:18;;;;;;;2.50;0.90;;;33.50;92.20;;;;;;4178751;28;20091;-65
2022/06/18 05:36:25;;;;;;;1.50;0.90;;;33.60;92.90;;;;;;4173648;28;20304;-64
2022/06/18 05:38:32;;;;;;;2.47;0.98;;;33.50;92.00;;;;;;4174795;28;20591;-64
2022/06/18 05:40:38;;;;;;;1.30;0.93;;;33.60;91.70;;;;;;4162616;28;20088;-64
2022/06/18 05:42:44;;;;;;;2.13;0.95;;;33.90;92.40;;;;;;4178221;28;20045;-64
2022/06/18 05:45:02;;;;;;;1.73;0.90;;;33.80;91.80;;;;;;4178594;28;20456;-64
2022/06/18 05:47:31;;;;;;;3.05;1.00;;;33.80;92.10;;;;;;4171432;28;20927;-64
2022/06/18 05:49:37;;;;;;;1.92;1.00;;;33.70;92.20;;;;;;4175365;28;20081;-64
2022/06/18 05:51:42;;;;;;;4.47;1.17;;;33.90;92.10;;;;;;4179886;28;20037;-65
2022/06/18 05:53:48;;;;;;;3.63;0.90;;;34.00;92.20;;;;;;4183897;28;20052;-64
2022/06/18 05:56:16;;;;;;;2.92;1.38;;;34.10;92.00;;;;;;4172055;28;20124;-64
2022/06/18 05:58:34;;;;;;;3.17;1.20;;;34.50;92.50;;;;;;4177893;28;20055;-64
2022/06/18 06:00:43;;;;;;;1.85;1.10;;;34.70;93.00;;;;;;4178191;28;20071;-64
2022/06/18 06:02:52;;;;;;;2.25;1.40;;;35.00;92.60;;;;;;4178591;28;20595;-64
2022/06/18 06:04:57;;;;;;;5.68;1.38;;;35.00;92.90;;;;;;4170755;28;20475;-64
2022/06/18 06:07:03;;;;;;;2.70;1.40;;;35.30;92.70;;;;;;4178875;28;20052;-64
2022/06/18 06:09:11;;;;;;;1.85;1.15;;;35.30;92.60;;;;;;4177607;28;20049;-64
2022/06/18 06:13:36;;;;;;;3.03;1.00;;;35.50;92.40;;;;;;4177030;28;20052;-64
2022/06/18 06:15:42;;;;;;;4.13;0.93;;;35.70;91.60;;;;;;4176085;28;20055;-64
2022/06/18 06:17:46;;;;;;;2.38;0.80;;;35.80;91.10;;;;;;4178375;28;20052;-64
2022/06/18 06:19:53;;;;;;;2.45;0.88;;;35.80;90.10;;;;;;4178393;28;20483;-64
2022/06/18 06:22:00;;;;;;;1.48;0.80;;;35.60;89.80;;;;;;4195258;28;20052;-64
2022/06/18 06:24:07;;;;;;;2.53;0.90;;;35.30;90.30;;;;;;4176561;28;20076;-64
2022/06/18 06:26:20;;;;;;;2.78;0.80;;;35.40;90.70;;;;;;4161853;28;20099;-63
2022/06/18 06:28:29;;;;;;;1.55;0.60;;;35.60;90.50;;;;;;4177951;28;20045;-64
2022/06/18 06:30:33;;;;;;;3.33;1.17;;;35.60;90.70;;;;;;4179120;28;20041;-64
2022/06/18 06:32:38;;;;;;;1.98;1.00;;;35.50;90.30;;;;;;4176639;28;20053;-64
2022/06/18 06:34:44;;;;;;;1.83;0.70;;;35.40;90.60;;;;;;4173859;28;20053;-64
2022/06/18 06:36:48;;;;;;;1.52;0.70;;;35.40;88.20;;;;;;4178522;28;20079;-64
2022/06/18 06:38:53;;;;;;;2.13;0.63;;;35.50;88.60;;;;;;4160116;28;20120;-64
2022/06/18 06:41:01;;;;;;;1.08;0.63;;;35.60;89.30;;;;;;4177507;28;20044;-64
2022/06/18 06:43:07;;;;;;;1.05;0.77;;;35.50;87.70;;;;;;4193619;28;20083;-64
2022/06/18 06:45:17;;;;;;;3.75;0.60;;;35.30;87.30;;;;;;4176780;28;20049;-64
2022/06/18 06:47:25;;;;;;;1.47;0.70;;;35.10;87.30;;;;;;4178236;28;20037;-64
2022/06/18 06:49:30;;;;;;;7.35;6.50;;;34.70;87.30;;;;;;4177925;28;20411;-64
2022/06/18 06:51:37;;;;;;;2.83;1.23;;;34.40;88.90;;;;;;4177853;28;20033;-64
2022/06/18 06:53:44;;;;;;;1.88;1.05;;;34.40;90.00;;;;;;4177549;28;20514;-64
2022/06/18 06:58:05;;;;;;;2.13;0.70;;;34.70;89.90;;;;;;4177750;28;20052;-64
2022/06/18 07:00:14;;;;;;;1.45;0.63;;;34.90;89.60;;;;;;4178699;28;20604;-64
2022/06/18 07:02:21;;;;;;;2.47;0.85;;;35.00;86.70;;;;;;4178953;28;20124;-65
2022/06/18 07:04:26;;;;;;;1.70;1.00;;;35.00;87.60;;;;;;4178017;28;20443;-63
2022/06/18 07:06:35;;;;;;;2.00;0.70;;;35.30;88.30;;;;;;4173104;28;20053;-64
2022/06/18 07:08:43;;;;;;;1.23;0.70;;;35.30;88.10;;;;;;4171107;28;20099;-64
2022/06/18 07:10:49;;;;;;;2.75;0.90;;;35.40;87.50;;;;;;4171656;28;20063;-65
2022/06/18 07:13:04;;;;;;;4.95;0.95;;;35.30;88.90;;;;;;4140031;28;20596;-64
2022/06/18 07:15:09;;;;;;;1.48;0.90;;;35.20;90.00;;;;;;4178133;28;20041;-64
2022/06/18 07:17:18;;;;;;;4.03;1.00;;;35.40;88.50;;;;;;4176633;28;20045;-64
2022/06/18 07:19:26;;;;;;;2.35;0.80;;;35.00;88.80;;;;;;4177307;28;20047;-66
2022/06/18 07:21:44;;;;;;;2.00;0.90;;;35.00;89.20;;;;;;4178776;28;20822;-64
2022/06/18 07:23:49;;;;;;;2.42;0.93;;;35.10;89.60;;;;;;4174586;28;20056;-64
2022/06/18 07:26:01;;;;;;;1.63;0.90;;;35.10;89.50;;;;;;4178322;28;20072;-64
2022/06/18 07:28:09;;;;;;;1.88;0.80;;;35.30;90.60;;;;;;4175122;28;20422;-64
2022/06/18 07:30:14;;;;;;;1.63;1.00;;;35.30;89.10;;;;;;4177162;28;20041;-64
2022/06/18 07:32:22;;;;;;;2.78;1.05;;;34.80;90.10;;;;;;4169128;28;20052;-64
2022/06/18 07:34:27;;;;;;;2.97;1.15;;;35.00;90.10;;;;;;4177071;28;20761;-64
2022/06/18 07:36:32;;;;;;;3.20;0.90;;;35.10;89.80;;;;;;4176962;28;20045;-64
2022/06/18 07:38:39;;;;;;;2.65;0.93;;;35.00;90.10;;;;;;4175111;28;20134;-64
2022/06/18 07:40:50;;;;;;;1.92;0.80;;;35.20;90.00;;;;;;4176884;28;20399;-63
2022/06/18 07:42:54;;;;;;;1.75;0.73;;;35.30;90.20;;;;;;4177403;28;20088;-66
2022/06/18 07:45:05;;;;;;;1.60;0.80;;;35.40;89.50;;;;;;4176602;28;20040;-66
2022/06/18 07:47:13;;;;;;;5.07;0.90;;;35.40;89.20;;;;;;4176529;28;20612;-65
2022/06/18 07:49:18;;;;;;;4.00;1.27;;;35.10;89.20;;;;;;4177954;28;20071;-64
2022/06/18 07:51:28;;;;;;;3.58;0.90;;;34.90;90.10;;;;;;4140958;28;20457;-65
2022/06/18 07:53:33;;;;;;;7.32;1.20;;;34.60;90.50;;;;;;4178716;28;20094;-65
2022/06/18 07:55:39;;;;;;;3.90;1.10;;;34.50;90.60;;;;;;4166974;28;20045;-65
2022/06/18 07:57:53;;;;;;;1.73;1.00;;;34.30;90.90;;;;;;4156384;28;20080;-65
2022/06/18 08:00:04;;;;;;;2.75;1.00;;;34.30;90.80;;;;;;4173465;28;20053;-65
2022/06/18 08:02:16;;;;;;;;;;;34.30;90.60;;;;;;4175930;28;20045;-65
2022/06/18 08:04:21;;;;;;;1.98;0.85;;;34.40;90.80;;;;;;4172780;28;20042;-66
2022/06/18 08:06:26;;;;;;;2.03;1.02;;;34.60;91.00;;;;;;4166115;28;20419;-65
2022/06/18 08:08:30;;;;;;;3.13;1.38;;;34.70;91.40;;;;;;4171259;28;20056;-65
2022/06/18 08:10:46;;;;;;;4.13;2.27;;;34.90;91.30;;;;;;4169042;28;20076;-65
2022/06/18 08:12:51;;;;;;;5.85;2.08;;;35.10;91.50;;;;;;4168102;28;20075;-65
2022/06/18 08:15:08;;;;;;;7.88;3.30;;;35.30;91.40;;;;;;4175341;28;20080;-65
2022/06/18 08:17:16;;;;;;;8.15;3.50;;;35.30;91.50;;;;;;4174093;28;20043;-65
2022/06/18 08:19:21;;;;;;;12.45;4.32;;;35.40;91.40;;;;;;4176614;28;20687;-66
2022/06/18 08:21:29;;;;;;;8.48;3.63;;;35.40;91.10;;;;;;4174910;28;20056;-64
2022/06/18 08:23:34;;;;;;;4.68;2.67;;;35.50;91.30;;;;;;4175799;28;20131;-65
2022/06/18 08:25:40;;;;;;;4.95;2.00;;;35.40;91.40;;;;;;4174923;28;20130;-64
2022/06/18 08:27:51;;;;;;;;;;;35.40;91.40;;;;;;4175325;28;20052;-65
2022/06/18 08:30:05;;;;;;;5.88;1.95;;;35.50;91.20;;;;;;4167484;28;19931;-65
2022/06/18 08:32:09;;;;;;;4.95;1.60;;;35.50;91.00;;;;;;4173609;28;20507;-65
2022/06/18 08:34:15;;;;;;;3.75;2.20;;;35.50;91.10;;;;;;4176164;28;20053;-65
2022/06/18 08:36:28;;;;;;;2.38;1.70;;;35.50;91.10;;;;;;4174030;28;20099;-64
2022/06/18 08:38:33;;;;;;;3.70;1.70;;;35.60;91.30;;;;;;4171480;28;20084;-65
2022/06/18 08:41:17;;;;;;;3.53;1.70;;;35.60;91.30;;;;;;4174822;28;20048;-65
2022/06/18 08:43:48;;;;;;;2.75;1.60;;;35.60;91.00;;;;;;4173931;28;20049;-65
2022/06/18 08:46:12;;;;;;;6.43;1.80;;;35.60;90.50;;;;;;4176506;28;20052;-64
2022/06/18 08:48:49;;;;;;;6.72;1.92;;;35.60;90.60;;;;;;4163714;28;20041;-64
2022/06/18 08:51:13;;;;;;;3.47;1.70;;;35.60;90.60;;;;;;4170670;28;20041;-67
2022/06/18 08:53:57;;;;;;;5.22;2.00;;;35.60;90.10;;;;;;4166985;28;20041;-66
2022/06/18 08:56:33;;;;;;;4.07;1.80;;;35.60;90.50;;;;;;4169417;28;20045;-68
2022/06/18 08:58:57;;;;;;;5.72;2.53;;;35.60;90.60;;;;;;4168598;28;20087;-65
2022/06/18 09:01:19;;;;;;;6.22;2.45;;;35.70;90.80;;;;;;4167792;28;20049;-65
2022/06/18 09:03:40;;;;;;;8.32;3.50;;;35.70;90.60;;;;;;4165345;28;20045;-65
2022/06/18 09:06:10;;;;;;;6.60;2.75;;;35.70;90.50;;;;;;4165408;28;20045;-65
2022/06/18 09:08:43;;;;;;;5.90;2.45;;;35.70;90.40;;;;;;4173074;28;20049;-65
2022/06/18 09:11:11;;;;;;;3.15;1.48;;;35.70;90.30;;;;;;4173699;28;20094;-64
2022/06/18 09:13:25;;;;;;;2.33;1.50;;;35.70;90.30;;;;;;4171536;28;20471;-65
2022/06/18 09:15:34;;;;;;;3.55;1.67;;;35.70;90.20;;;;;;4172082;28;20131;-65
2022/06/18 09:17:50;;;;;;;3.83;1.50;;;35.60;89.90;;;;;;4170700;28;20060;-65
2022/06/18 09:20:04;;;;;;;5.20;1.95;;;35.70;90.00;;;;;;4173295;28;20552;-65
2022/06/18 09:22:19;;;;;;;4.70;1.58;;;35.80;90.10;;;;;;4185864;28;20056;-65
2022/06/18 09:24:42;;;;;;;4.00;1.50;;;35.70;89.50;;;;;;4171688;28;20051;-65
2022/06/18 09:26:51;;;;;;;4.05;1.38;;;35.80;89.80;;;;;;4172691;28;20056;-65
2022/06/18 09:29:13;;;;;;;3.00;1.25;;;35.70;89.70;;;;;;4170610;28;20477;-65
2022/06/18 09:31:43;;;;;;;3.70;1.85;;;35.70;90.20;;;;;;4172777;28;20045;-65
2022/06/18 09:34:14;;;;;;;3.05;1.77;;;35.80;90.20;;;;;;4171184;28;20135;-64
2022/06/18 09:36:24;;;;;;;7.40;3.08;;;35.70;90.40;;;;;;4174089;28;20400;-64
2022/06/18 09:38:39;;;;;;;4.32;2.45;;;35.60;90.30;;;;;;4169477;28;20040;-65
2022/06/18 09:40:58;;;;;;;5.47;2.10;;;35.60;90.30;;;;;;4188895;28;20071;-64
2022/06/18 09:43:11;;;;;;;3.05;1.63;;;35.70;90.20;;;;;;4170103;28;20049;-65
2022/06/18 09:45:20;;;;;;;2.70;1.50;;;35.70;89.60;;;;;;4167949;28;20033;-65
2022/06/18 09:47:41;;;;;;;3.10;1.30;;;35.70;89.40;;;;;;4161070;28;20051;-65
2022/06/18 09:49:47;;;;;;;3.40;1.38;;;35.70;88.90;;;;;;4168248;28;20055;-65
2022/06/18 09:52:07;;;;;;;3.05;1.33;;;35.70;90.00;;;;;;4171739;28;20127;-65
2022/06/18 09:54:11;;;;;;;2.28;1.10;;;35.60;88.40;;;;;;4173612;28;20056;-65
2022/06/18 09:56:27;;;;;;;3.65;1.20;;;35.50;88.90;;;;;;4171427;28;20053;-66
2022/06/18 09:58:43;;;;;;;3.13;1.17;;;35.50;87.90;;;;;;4163968;28;20044;-65
2022/06/18 10:00:48;;;;;;;3.13;1.20;;;35.30;87.40;;;;;;4164354;28;20060;-65
2022/06/18 10:06:52;;;;;;;2.85;1.08;;;35.10;88.50;;;;;;4170863;28;20077;-65
2022/06/18 10:08:08;;;;;;;3.03;1.50;;;35.00;89.30;;;;;;4172351;28;20111;-65
2022/06/18 10:10:22;;;;;;;2.85;1.40;;;34.80;89.80;;;;;;4174256;28;20102;-65
2022/06/18 10:12:39;;;;;;;3.28;1.20;;;35.00;90.20;;;;;;4172290;28;20079;-65
2022/06/18 10:14:49;;;;;;;3.72;1.42;;;35.20;90.20;;;;;;4166108;28;20045;-65
2022/06/18 10:17:11;;;;;;;3.67;1.50;;;35.20;90.00;;;;;;4170170;28;20930;-65
2022/06/18 10:19:44;;;;;;;2.88;1.52;;;35.20;90.20;;;;;;4172953;28;20164;-65
2022/06/18 10:22:01;;;;;;;4.07;1.42;;;35.20;89.80;;;;;;4171093;28;20057;-65
2022/06/18 10:24:14;;;;;;;6.10;1.65;;;35.20;89.50;;;;;;4173976;28;20048;-65
2022/06/18 10:26:41;;;;;;;5.00;1.63;;;35.20;89.40;;;;;;4173074;28;20045;-65
2022/06/18 10:29:00;;;;;;;3.80;1.85;;;35.10;90.10;;;;;;4164038;28;20052;-65
2022/06/18 10:31:44;;;;;;;3.40;1.80;;;35.10;90.30;;;;;;4173061;28;20041;-65
2022/06/18 10:34:12;;;;;;;3.70;1.80;;;35.10;90.40;;;;;;4173376;28;20041;-65
2022/06/18 10:36:49;;;;;;;7.57;2.33;;;34.90;90.60;;;;;;4172311;28;20131;-66
2022/06/18 10:39:35;;;;;;;3.83;2.20;;;34.90;91.00;;;;;;4172419;28;20770;-65
2022/06/18 10:41:54;;;;;;;5.03;2.33;;;34.90;90.40;;;;;;4173154;28;20482;-65
2022/06/18 10:44:34;;;;;;;6.20;2.58;;;34.90;90.30;;;;;;4170562;28;20053;-65
2022/06/18 10:46:41;;;;;;;4.15;2.20;;;34.90;90.50;;;;;;4170954;28;20045;-65
2022/06/18 10:48:50;;;;;;;4.07;1.95;;;34.80;90.60;;;;;;4172824;28;20045;-65
2022/06/18 10:50:59;;;;;;;4.10;2.00;;;34.80;90.50;;;;;;4164350;28;20486;-66
2022/06/18 10:53:06;;;;;;;4.65;1.75;;;34.70;90.40;;;;;;4173054;28;20064;-65
2022/06/18 10:55:19;;;;;;;3.33;2.10;;;34.70;90.50;;;;;;4171499;28;20059;-65
2022/06/18 10:57:28;;;;;;;6.53;2.53;;;34.70;90.70;;;;;;4173681;28;20075;-65
2022/06/18 10:59:35;;;;;;;6.03;2.65;;;34.60;91.00;;;;;;4175166;28;20234;-66
2022/06/18 11:01:46;;;;;;;15.25;3.92;;;34.40;91.40;;;;;;4174744;28;20052;-65
2022/06/18 11:04:00;;;;;;;8.32;3.67;;;34.40;91.50;;;;;;4175333;28;20076;-65
2022/06/18 11:06:12;;;;;;;9.13;4.38;;;34.30;91.50;;;;;;4173145;28;20048;-65
2022/06/18 11:08:24;;;;;;;6.95;4.75;;;34.30;91.60;;;;;;4175207;28;20087;-65
2022/06/18 11:10:50;;;;;;;8.15;5.18;;;34.20;91.60;;;;;;4176115;28;20576;-65
2022/06/18 11:12:57;;;;;;;11.43;4.95;;;34.10;91.90;;;;;;4174589;28;20102;-65
2022/06/18 11:15:02;;;;;;;9.07;5.10;;;34.10;91.90;;;;;;4176022;28;20041;-64
2022/06/18 11:17:20;;;;;;;10.15;5.50;;;34.10;92.10;;;;;;4175595;28;20140;-64
2022/06/18 11:19:29;;;;;;;10.50;6.72;;;34.00;92.30;;;;;;4178598;28;20128;-64
2022/06/18 11:21:43;;;;;;;14.80;9.35;;;34.00;92.40;;;;;;4178676;28;20455;-64
2022/06/18 11:24:15;;;;;;;13.25;8.43;;;33.90;92.00;;;;;;4178572;28;20048;-65
2022/06/18 11:26:24;;;;;;;11.65;7.60;;;33.90;92.50;;;;;;4170847;28;20037;-65
2022/06/18 11:28:36;;;;;;;9.48;5.78;;;33.80;92.80;;;;;;4166585;28;20044;-64
2022/06/18 11:30:46;;;;;;;7.35;5.60;;;33.60;92.40;;;;;;4178034;28;20033;-65
2022/06/18 11:32:51;;;;;;;9.73;4.90;;;33.60;93.00;;;;;;4174382;28;20053;-65
2022/06/18 11:35:25;;;;;;;6.28;3.47;;;33.50;93.10;;;;;;4176369;28;20438;-65
2022/06/18 11:37:34;;;;;;;4.88;3.10;;;33.40;93.20;;;;;;4174223;28;20037;-64
2022/06/18 11:39:40;;;;;;;6.88;2.92;;;33.40;93.40;;;;;;4177412;28;20036;-65
2022/06/18 11:41:45;;;;;;;6.28;2.85;;;33.40;93.20;;;;;;4174937;28;20491;-65
2022/06/18 11:43:57;;;;;;;4.10;2.40;;;33.30;93.20;;;;;;4177749;28;20032;-65